createdAt,value
2022-10-14T00:02:19.594Z,119314.25
2022-10-14T00:07:23.500Z,119314.25
2022-10-14T00:12:27.112Z,119314.25
2022-10-14T00:17:31.984Z,119314.25
2022-10-14T00:22:35.676Z,119314.25
2022-10-14T00:27:39.193Z,119316.31
2022-10-14T00:32:50.008Z,119314.25
2022-10-14T00:37:53.717Z,119314.25
2022-10-14T00:42:58.091Z,119314.25
2022-10-14T00:48:03.263Z,119314.25
2022-10-14T00:53:06.888Z,119314.25
2022-10-14T00:58:11.413Z,119314.25
2022-10-14T01:03:22.926Z,119314.25
2022-10-14T01:08:34.376Z,119314.25
2022-10-14T01:13:42.918Z,119314.25
2022-10-14T01:19:03.322Z,119314.25
2022-10-14T01:24:32.120Z,119314.25
2022-10-14T01:30:12.046Z,119314.25
2022-10-14T01:35:25.730Z,119314.25
2022-10-14T01:40:35.751Z,119314.25
2022-10-14T01:45:44.991Z,119314.25
2022-10-14T01:50:53.092Z,119314.25
2022-10-14T01:55:59.716Z,119314.25
2022-10-14T02:01:05.756Z,119314.25
2022-10-14T02:06:13.320Z,119314.25
2022-10-14T02:11:19.746Z,119314.25
2022-10-14T02:16:33.935Z,119314.25
2022-10-14T02:21:42.712Z,119314.25
2022-10-14T02:26:48.847Z,119316.31
2022-10-14T02:31:55.646Z,119316.31
2022-10-14T02:37:00.786Z,119316.31
2022-10-14T02:42:09.343Z,119316.31
2022-10-14T02:47:14.221Z,119316.31
2022-10-14T02:52:17.693Z,119316.31
2022-10-14T02:57:21.219Z,119316.31
2022-10-14T03:02:26.647Z,119316.31
2022-10-14T03:07:30.730Z,119316.31
2022-10-14T03:12:38.513Z,119316.31
2022-10-14T03:17:48.337Z,119316.31
2022-10-14T03:22:55.765Z,119316.31
2022-10-14T03:27:59.873Z,119316.31
2022-10-14T03:33:20.426Z,119316.31
2022-10-14T03:38:44.332Z,119316.31
2022-10-14T03:43:56.898Z,119316.31
2022-10-14T03:49:02.271Z,119316.31
2022-10-14T03:54:06.793Z,119316.31
2022-10-14T03:59:10.343Z,119316.31
2022-10-14T04:04:15.348Z,119316.31
2022-10-14T04:09:19.108Z,119316.31
2022-10-14T04:14:24.379Z,119316.31
2022-10-14T04:19:29.421Z,119316.31
2022-10-14T04:24:32.987Z,119316.31
2022-10-14T04:29:36.539Z,119316.31
2022-10-14T04:34:49.382Z,119316.31
2022-10-14T04:39:56.645Z,119316.31
2022-10-14T04:45:00.194Z,119316.31
2022-10-14T04:50:18.449Z,119316.31
2022-10-14T04:55:41.814Z,119316.31
2022-10-14T05:00:45.588Z,119316.31
2022-10-14T05:06:03.692Z,119316.31
2022-10-14T05:11:07.394Z,119316.31
2022-10-14T05:16:19.643Z,119316.31
2022-10-14T05:21:24.576Z,119316.31
2022-10-14T05:26:48.628Z,119316.31
2022-10-14T05:31:52.711Z,119316.31
2022-10-14T05:37:06.669Z,119316.31
2022-10-14T05:42:17.569Z,119316.31
2022-10-14T05:47:21.467Z,119316.31
2022-10-14T05:52:34.219Z,119316.31
2022-10-14T05:57:44.404Z,119316.31
2022-10-14T06:02:51.379Z,119316.31
2022-10-14T06:07:57.230Z,119316.31
2022-10-14T06:13:00.736Z,119316.31
2022-10-14T06:18:05.179Z,119316.31
2022-10-14T06:23:10.794Z,119316.31
2022-10-14T06:28:14.384Z,119316.31
2022-10-14T06:33:17.943Z,119316.31
2022-10-14T06:38:22.883Z,119316.31
2022-10-14T06:43:26.589Z,119316.31
2022-10-14T06:48:31.833Z,119316.31
2022-10-14T06:53:36.787Z,119316.31
2022-10-14T06:58:40.406Z,119316.31
2022-10-14T07:03:43.965Z,119316.31
2022-10-14T07:08:49.029Z,119316.31
2022-10-14T07:13:52.594Z,119316.31
2022-10-14T07:18:56.175Z,119316.31
2022-10-14T07:24:01.222Z,119316.31
2022-10-14T07:29:05.621Z,119316.31
2022-10-14T07:34:09.236Z,119316.31
2022-10-14T07:39:14.391Z,119316.31
2022-10-14T07:44:21.316Z,119316.31
2022-10-14T07:49:28.769Z,119316.31
2022-10-14T07:54:33.722Z,119316.31
2022-10-14T07:59:37.317Z,119316.31
2022-10-14T08:04:41.122Z,119316.31
2022-10-14T08:09:46.148Z,119316.31
2022-10-14T08:14:49.776Z,119316.31
2022-10-14T08:19:53.479Z,119316.31
2022-10-14T08:24:58.459Z,119316.31
2022-10-14T08:30:04.923Z,119316.31
2022-10-14T08:35:12.865Z,119316.31
2022-10-14T08:40:18.144Z,119251.59
2022-10-14T08:45:33.222Z,119224.44
2022-10-14T08:50:41.218Z,119176.41
2022-10-14T08:55:48.468Z,119143.00
2022-10-14T09:00:53.940Z,119001.00
2022-10-14T09:06:00.637Z,118854.81
2022-10-14T09:11:07.255Z,118683.59
2022-10-14T09:16:18.659Z,118407.97
2022-10-14T09:26:58.217Z,117883.91
2022-10-14T09:32:05.307Z,117581.22
2022-10-14T09:37:24.967Z,117620.88
2022-10-14T09:42:41.833Z,117393.31
2022-10-14T09:47:54.255Z,117543.63
2022-10-14T09:53:02.870Z,117426.72
2022-10-14T09:58:14.524Z,117278.53
2022-10-14T10:03:30.228Z,117259.72
2022-10-14T10:08:35.175Z,117284.78
2022-10-14T10:13:45.681Z,117529.00
2022-10-14T10:18:49.700Z,118293.13
2022-10-14T10:23:56.782Z,118435.09
2022-10-14T10:29:03.642Z,118602.16
2022-10-14T10:34:24.204Z,118424.66
2022-10-14T10:39:38.202Z,118529.06
2022-10-14T10:44:59.001Z,118646.00
2022-10-14T10:50:28.919Z,118570.81
2022-10-14T10:55:40.269Z,118485.22
2022-10-14T11:00:54.114Z,118671.06
2022-10-14T11:06:05.609Z,118859.00
2022-10-14T11:11:40.063Z,118932.06
2022-10-14T11:16:53.691Z,119040.66
2022-10-14T11:22:04.960Z,118936.25
2022-10-14T11:27:15.023Z,119107.50
2022-10-14T11:32:28.756Z,118996.81
2022-10-14T11:37:48.085Z,119051.09
2022-10-14T11:43:07.134Z,119040.66
2022-10-14T11:48:25.804Z,119044.84
2022-10-14T11:53:41.977Z,119005.16
2022-10-14T11:58:52.328Z,119099.13
2022-10-14T12:04:03.783Z,119314.25
2022-10-14T12:09:18.222Z,119316.31
2022-10-14T12:14:31.054Z,119316.31
2022-10-14T12:19:37.920Z,119314.25
2022-10-14T12:24:45.190Z,119316.31
2022-10-14T12:29:51.020Z,119316.31
2022-10-14T12:34:56.949Z,119316.31
2022-10-14T12:40:24.261Z,119249.50
2022-10-14T12:45:30.063Z,119234.88
2022-10-14T12:50:39.136Z,119138.81
2022-10-14T12:55:50.539Z,119203.56
2022-10-14T13:00:57.454Z,119316.31
2022-10-14T13:06:40.813Z,119316.31
2022-10-14T13:11:45.860Z,119316.31
2022-10-14T13:17:00.481Z,119305.88
2022-10-14T13:22:06.956Z,119289.19
2022-10-14T13:27:22.847Z,119316.31
2022-10-14T13:32:33.930Z,119316.31
2022-10-14T13:37:45.613Z,119316.31
2022-10-14T13:42:52.984Z,119316.31
2022-10-14T13:47:56.554Z,119316.31
2022-10-14T13:53:07.959Z,119316.31
2022-10-14T13:58:16.484Z,119316.31
2022-10-14T14:03:24.431Z,119316.31
2022-10-14T14:08:41.616Z,119316.31
2022-10-14T14:13:55.844Z,119316.31
2022-10-14T14:19:08.697Z,119316.31
2022-10-14T14:24:21.804Z,119316.31
2022-10-14T14:29:29.803Z,119316.31
2022-10-14T14:34:33.410Z,119316.31
2022-10-14T14:39:38.748Z,119316.31
2022-10-14T14:44:43.513Z,119316.31
2022-10-14T14:49:47.391Z,119316.31
2022-10-14T14:54:52.350Z,119316.31
2022-10-14T15:00:02.466Z,119316.31
2022-10-14T15:05:09.221Z,119316.31
2022-10-14T15:10:24.978Z,119316.31
2022-10-14T15:15:31.246Z,119316.31
2022-10-14T15:20:37.232Z,119316.31
2022-10-14T15:25:44.139Z,119316.31
2022-10-14T15:30:55.769Z,119316.31
2022-10-14T15:36:01.918Z,119316.31
2022-10-14T15:41:07.212Z,119316.31
2022-10-14T15:46:36.655Z,119316.31
2022-10-14T15:51:40.185Z,119316.31
2022-10-14T15:56:46.519Z,119316.31
2022-10-14T16:01:50.793Z,119316.31
2022-10-14T16:06:56.569Z,119316.31
2022-10-14T16:12:01.601Z,119316.31
2022-10-14T16:17:05.275Z,119316.31
2022-10-14T16:22:10.355Z,119316.31
2022-10-14T16:27:16.581Z,119316.31
2022-10-14T16:32:20.119Z,119316.31
2022-10-14T16:37:23.992Z,119316.31
2022-10-14T16:42:29.415Z,119316.31
2022-10-14T16:47:33.136Z,119316.31
2022-10-14T16:52:51.398Z,119316.31
2022-10-14T16:57:56.267Z,119316.31
2022-10-14T17:03:00.299Z,119316.31
2022-10-14T17:08:04.225Z,119316.31
2022-10-14T17:13:09.314Z,119316.31
2022-10-14T17:18:17.726Z,119316.31
2022-10-14T17:23:21.553Z,119316.31
2022-10-14T17:28:29.223Z,119316.31
2022-10-14T17:33:34.896Z,119316.31
2022-10-14T17:38:38.464Z,119316.31
2022-10-14T17:43:43.570Z,119316.31
2022-10-14T17:48:50.737Z,119316.31
2022-10-14T17:53:55.557Z,119316.31
2022-10-14T17:59:01.716Z,119316.31
2022-10-14T18:04:06.939Z,119316.31
2022-10-14T18:09:14.899Z,119316.31
2022-10-14T18:14:19.777Z,119316.31
2022-10-14T18:19:23.557Z,119316.31
2022-10-14T18:24:27.291Z,119316.31
2022-10-14T18:29:32.268Z,119316.31
2022-10-14T18:34:36.080Z,119316.31
2022-10-14T18:40:10.620Z,119316.31
2022-10-14T18:45:25.280Z,119316.31
2022-10-14T18:50:28.881Z,119316.31
2022-10-14T18:55:32.489Z,119316.31
2022-10-14T19:00:40.444Z,119316.31
2022-10-14T19:05:45.008Z,119316.31
2022-10-14T19:10:48.562Z,119316.31
2022-10-14T19:16:00.838Z,119316.31
2022-10-14T19:21:05.626Z,119316.31
2022-10-14T19:26:10.683Z,119316.31
2022-10-14T19:31:17.297Z,119316.31
2022-10-14T19:36:25.285Z,119316.31
2022-10-14T19:41:30.906Z,119316.31
2022-10-14T19:46:35.897Z,119316.31
2022-10-14T19:51:39.940Z,119316.31
2022-10-14T19:56:44.120Z,119316.31
2022-10-14T20:01:50.802Z,119316.31
2022-10-14T20:06:54.451Z,119316.31
2022-10-14T20:11:58.180Z,119316.31
2022-10-14T20:17:03.840Z,119316.31
2022-10-14T20:22:07.595Z,119316.31
2022-10-14T20:27:14.020Z,119316.31
2022-10-14T20:32:18.972Z,119316.31
2022-10-14T20:37:25.707Z,119316.31
2022-10-14T20:42:34.339Z,119316.31
2022-10-14T20:47:39.397Z,119316.31
2022-10-14T20:52:43.044Z,119316.31
2022-10-14T20:57:46.693Z,119316.31
2022-10-14T21:02:51.618Z,119316.31
2022-10-14T21:07:55.100Z,119316.31
2022-10-14T21:12:58.593Z,119316.31
2022-10-14T21:18:03.457Z,119316.31
2022-10-14T21:23:06.914Z,119314.25
2022-10-14T21:28:11.406Z,119314.25
2022-10-14T21:33:16.247Z,119314.25
2022-10-14T21:38:19.729Z,119314.25
2022-10-14T21:43:25.470Z,119314.25
2022-10-14T21:48:30.543Z,119314.25
2022-10-14T21:53:35.056Z,119314.25
2022-10-14T21:58:38.755Z,119314.25
2022-10-14T22:03:44.725Z,119314.25
2022-10-14T22:08:49.952Z,119314.25
2022-10-14T22:13:55.068Z,119314.25
2022-10-14T22:19:02.409Z,119314.25
2022-10-14T22:29:14.789Z,119314.25
2022-10-14T22:34:19.666Z,118900.75
2022-10-14T22:39:23.197Z,118873.59
2022-10-14T22:44:26.783Z,118865.25
2022-10-14T22:49:31.709Z,119147.16
2022-10-14T22:54:35.400Z,118984.28
2022-10-14T22:59:38.874Z,119193.13
2022-10-14T23:04:43.689Z,119130.47
2022-10-14T23:09:47.238Z,119264.13
2022-10-14T23:14:51.341Z,119314.25
2022-10-14T23:19:56.137Z,119314.25
2022-10-14T23:24:59.620Z,119314.25
2022-10-14T23:30:03.259Z,119314.25
2022-10-14T23:35:08.943Z,119314.25
2022-10-14T23:40:14.310Z,119314.25
2022-10-14T23:45:17.821Z,119245.31
2022-10-14T23:50:22.777Z,119314.25
2022-10-14T23:55:26.356Z,119255.75
